Time;durP1;ratioP1;P1;durP2;ratioP2;P2;SDS_P1;SDS_P2;PMS_P1;PMS_P2;Temp;Humidity;BMP_temperature;BMP_pressure;BME280_temperature;BME280_humidity;BME280_pressure;Samples;Min_cycle;Max_cycle;Signal;HPM_P1;HPM_P2
2024/04/01 00:01:43;;;;;;;0.00;0.00;;;;;;;16.22;76.69;94783.06;10460882;28;19972;-73
2024/04/01 00:06:43;;;;;;;;;;;;;;;16.19;75.48;94789.13;10428191;28;19916;-73
2024/04/01 00:11:43;;;;;;;0.00;0.00;;;;;;;16.07;79.58;94794.28;10467079;28;19940;-77
2024/04/01 00:16:44;;;;;;;0.00;0.00;;;;;;;15.88;75.38;94787.13;10428368;28;20483;-76
2024/04/01 00:21:44;;;;;;;;;;;;;;;16.00;72.94;94794.69;10424936;28;20049;-76
2024/04/01 00:26:45;;;;;;;;;;;;;;;15.96;73.47;94780.16;10444285;28;19909;-77
2024/04/01 00:31:45;;;;;;;;;;;;;;;15.92;74.37;94775.66;10447848;28;19916;-81
2024/04/01 00:36:45;;;;;;;;;;;;;;;15.96;73.10;94782.88;10410164;28;19919;-81
2024/04/01 00:41:45;;;;;;;;;;;;;;;16.00;71.30;94785.78;10443096;28;20086;-74
2024/04/01 00:46:46;;;;;;;;;;;;;;;16.11;70.39;94780.94;10408584;28;19915;-79
2024/04/01 00:51:47;;;;;;;;;;;;;;;16.16;70.60;94778.06;10442231;28;19915;-75
2024/04/01 00:56:48;;;;;;;;;;;;;;;16.13;72.28;94779.53;10424593;28;19928;-75
2024/04/01 01:01:49;;;;;;;;;;;;;;;16.16;73.54;94775.38;10423826;28;19979;-80
2024/04/01 01:06:49;;;;;;;;;;;;;;;16.17;74.62;94782.41;10440625;28;19971;-76
2024/04/01 01:11:49;;;;;;;;;;;;;;;16.19;74.89;94778.28;10424419;28;19917;-76
2024/04/01 01:16:50;;;;;;;;;;;;;;;16.21;75.80;94769.84;10423552;28;19916;-78
2024/04/01 01:21:50;;;;;;;;;;;;;;;15.97;77.53;94792.59;10423127;28;19946;-78
2024/04/01 01:26:52;;;;;;;;;;;;;;;16.00;77.79;94764.09;10442221;28;19913;-78
2024/04/01 01:31:52;;;;;;;;;;;;;;;15.94;79.46;94771.53;10440214;28;19944;-76
2024/04/01 01:36:53;;;;;;;;;;;;;;;16.09;79.38;94772.28;10422640;28;20004;-77
2024/04/01 01:41:53;;;;;;;;;;;;;;;16.15;78.55;94766.44;10422909;28;19969;-78
2024/04/01 01:46:55;;;;;;;;;;;;;;;16.14;80.99;94755.91;10422310;28;19916;-79
2024/04/01 01:51:56;;;;;;;;;;;;;;;15.95;81.76;94762.31;10440549;28;20050;-82
2024/04/01 01:56:57;;;;;;;;;;;;;;;15.88;78.97;94738.34;10422913;28;20456;-75
2024/04/01 02:01:57;;;;;;;0.00;0.00;;;;;;;15.73;82.32;94757.63;10421408;28;20708;-78
2024/04/01 02:06:58;;;;;;;0.00;0.00;;;;;;;15.75;79.29;94751.91;10421838;28;19923;-81
2024/04/01 02:11:59;;;;;;;0.00;0.00;;;;;;;15.73;81.46;94744.06;10425707;28;20104;-74
2024/04/01 02:17:00;;;;;;;0.00;0.00;;;;;;;15.64;81.34;94744.00;10439349;28;20495;-77
2024/04/01 02:22:00;;;;;;;0.00;0.00;;;;;;;15.50;82.26;94748.63;10438993;28;20011;-75
2024/04/01 02:27:01;;;;;;;;;;;;;;;15.48;83.72;94748.16;10422157;28;20040;-80
2024/04/01 02:32:01;;;;;;;0.00;0.00;;;;;;;15.46;78.60;94756.59;10419202;28;19920;-75
2024/04/01 02:37:02;;;;;;;0.00;0.00;;;;;;;15.47;82.13;94757.38;10433472;28;20121;-77
2024/04/01 02:42:02;;;;;;;0.00;0.00;;;;;;;15.45;85.26;94767.72;10470596;28;20433;-77
2024/04/01 02:47:03;;;;;;;0.00;0.00;;;;;;;15.27;85.65;94766.72;10436977;28;20040;-76
2024/04/01 02:52:04;;;;;;;0.00;0.00;;;;;;;15.14;86.07;94771.03;10442985;28;20252;-77
2024/04/01 02:57:05;;;;;;;0.00;0.00;;;;;;;15.05;90.43;94776.34;10441796;28;20029;-75
2024/04/01 03:02:05;;;;;;;0.00;0.00;;;;;;;14.87;93.66;94772.63;10424385;28;20033;-79
2024/04/01 03:07:06;;;;;;;0.00;0.00;;;;;;;14.85;93.50;94777.53;10427923;28;20050;-78
2024/04/01 03:12:07;;;;;;;0.00;0.00;;;;;;;14.75;95.39;94767.72;10432354;28;20026;-84
2024/04/01 03:17:07;;;;;;;0.00;0.00;;;;;;;14.63;91.47;94770.88;10430151;28;20032;-80
2024/04/01 03:22:08;;;;;;;0.00;0.00;;;;;;;14.60;93.70;94776.88;10446341;28;20057;-75
2024/04/01 03:27:08;;;;;;;0.00;0.00;;;;;;;14.66;92.34;94781.09;10447267;28;20017;-79
2024/04/01 03:32:08;;;;;;;2.00;1.90;;;;;;;14.38;94.96;94774.00;10427556;28;20032;-76
2024/04/01 03:37:10;;;;;;;0.00;0.00;;;;;;;14.46;92.79;94760.59;10430421;28;20311;-83
2024/04/01 03:42:14;;;;;;;0.00;0.00;;;;;;;14.52;94.92;94764.81;10428044;28;20044;-77
2024/04/01 03:47:15;;;;;;;0.00;0.00;;;;;;;14.40;97.18;94767.22;10439592;28;20476;-75
2024/04/01 03:52:15;;;;;;;0.00;0.00;;;;;;;14.45;98.56;94774.44;10445154;28;20021;-82
2024/04/01 03:57:16;;;;;;;0.00;0.00;;;;;;;14.40;96.17;94775.31;10385602;28;20284;-78
2024/04/01 04:02:17;;;;;;;0.00;0.00;;;;;;;14.25;97.61;94764.75;10416044;28;20514;-76
2024/04/01 04:07:17;;;;;;;0.00;0.00;;;;;;;14.20;98.93;94771.03;10415706;28;20594;-76
2024/04/01 04:12:18;;;;;;;0.00;0.00;;;;;;;14.28;97.65;94775.78;10400155;28;19917;-76
2024/04/01 04:17:18;;;;;;;0.00;0.00;;;;;;;14.16;99.78;94787.06;10419245;28;20031;-79
2024/04/01 04:22:19;;;;;;;0.00;0.00;;;;;;;14.12;96.23;94786.03;10416378;28;20049;-76
2024/04/01 04:27:20;;;;;;;0.00;0.00;;;;;;;14.24;100.00;94796.38;10439775;28;20021;-79
2024/04/01 04:32:22;;;;;;;0.00;0.00;;;;;;;14.29;92.43;94799.00;10442408;28;20484;-78
2024/04/01 04:37:23;;;;;;;0.00;0.00;;;;;;;14.30;99.57;94803.34;10430622;28;20447;-79
2024/04/01 04:42:24;;;;;;;0.00;0.00;;;;;;;14.35;94.70;94797.81;10429030;28;20033;-73
2024/04/01 04:47:24;;;;;;;0.00;0.00;;;;;;;14.45;94.42;94796.06;10442101;28;20551;-77
2024/04/01 04:52:24;;;;;;;0.00;0.00;;;;;;;14.60;95.40;94803.91;10398885;28;20318;-77
2024/04/01 04:57:26;;;;;;;0.00;0.00;;;;;;;14.79;89.49;94805.78;10427448;28;20124;-78
2024/04/01 05:02:28;;;;;;;0.00;0.00;;;;;;;15.14;87.13;94804.34;10407320;28;20024;-81
2024/04/01 05:07:28;;;;;;;0.00;0.00;;;;;;;15.55;88.90;94794.59;10401153;28;20025;-76
2024/04/01 05:12:30;;;;;;;0.00;0.00;;;;;;;15.94;80.91;94808.69;10439664;28;20422;-75
2024/04/01 05:17:30;;;;;;;0.00;0.00;;;;;;;16.28;81.06;94786.47;10427223;28;20972;-76
2024/04/01 05:22:31;;;;;;;0.00;0.00;;;;;;;16.72;66.98;94797.63;10439618;28;20075;-77
2024/04/01 05:27:31;;;;;;;0.00;0.00;;;;;;;17.14;77.33;94781.88;10414288;28;20359;-75
2024/04/01 05:32:32;;;;;;;0.00;0.00;;;;;;;17.38;63.19;94794.28;10413805;28;20102;-77
2024/04/01 05:37:36;;;;;;;0.38;0.00;;;;;;;18.12;63.47;94792.66;10419028;28;20036;-76
2024/04/01 05:42:36;;;;;;;0.00;0.00;;;;;;;18.42;54.94;94788.19;10445840;28;20037;-76
2024/04/01 05:47:37;;;;;;;0.00;0.00;;;;;;;18.67;50.34;94785.75;10440938;28;20542;-79
2024/04/01 05:52:37;;;;;;;0.05;0.05;;;;;;;18.77;49.37;94779.16;10421407;28;20465;-79
2024/04/01 05:57:39;;;;;;;0.00;0.00;;;;;;;19.02;47.06;94785.69;10399324;28;20050;-76
2024/04/01 06:02:40;;;;;;;0.40;0.40;;;;;;;19.85;45.33;94789.00;10403228;28;20083;-82
2024/04/01 06:07:41;;;;;;;0.00;0.00;;;;;;;20.95;44.40;94785.19;10421313;28;20044;-78
2024/04/01 06:12:43;;;;;;;0.00;0.00;;;;;;;21.88;40.52;94792.09;10440367;28;20044;-78
2024/04/01 06:17:43;;;;;;;0.00;0.00;;;;;;;22.30;39.71;94791.00;10422048;28;20377;-84
2024/04/01 06:22:46;;;;;;;0.00;0.00;;;;;;;22.45;40.25;94786.72;10421343;28;20051;-78
2024/04/01 06:27:47;;;;;;;0.00;0.00;;;;;;;22.89;38.68;94795.00;10445474;28;20107;-79
2024/04/01 06:32:47;;;;;;;0.00;0.00;;;;;;;23.00;38.91;94785.09;10408174;28;20055;-74
2024/04/01 06:37:49;;;;;;;0.00;0.00;;;;;;;23.10;37.53;94777.53;10424212;28;19924;-80
2024/04/01 06:42:50;;;;;;;0.00;0.00;;;;;;;22.95;38.05;94777.13;10451606;28;19919;-80
2024/04/01 06:47:51;;;;;;;0.00;0.00;;;;;;;23.50;37.48;94793.03;10447851;28;20033;-75
2024/04/01 06:52:51;;;;;;;0.00;0.00;;;;;;;23.87;36.18;94795.47;10413047;28;20234;-80
2024/04/01 06:57:52;;;;;;;0.00;0.00;;;;;;;23.65;36.92;94797.72;10411675;28;19932;-77
2024/04/01 07:02:52;;;;;;;0.00;0.00;;;;;;;24.27;36.54;94786.19;10428205;28;20724;-81
2024/04/01 07:07:53;;;;;;;0.00;0.00;;;;;;;25.15;34.34;94784.78;10429512;28;19981;-80
2024/04/01 07:12:54;;;;;;;0.00;0.00;;;;;;;25.50;33.92;94803.09;10427382;28;20473;-75
2024/04/01 07:17:54;;;;;;;0.00;0.00;;;;;;;26.04;33.68;94792.16;10427750;28;20081;-78
2024/04/01 07:22:54;;;;;;;0.35;0.00;;;;;;;26.89;32.60;94797.19;10445710;28;20402;-76
2024/04/01 07:27:55;;;;;;;0.00;0.00;;;;;;;27.54;33.29;94777.75;10427813;28;20041;-83
2024/04/01 07:32:56;;;;;;;0.00;0.00;;;;;;;27.33;31.10;94792.91;10430804;28;20130;-84
2024/04/01 07:37:56;;;;;;;0.00;0.00;;;;;;;28.01;30.00;94789.97;10433652;28;20056;-82
2024/04/01 07:42:56;;;;;;;0.00;0.00;;;;;;;28.36;30.13;94779.50;10444662;28;20741;-79
2024/04/01 07:47:57;;;;;;;0.00;0.00;;;;;;;29.17;30.07;94782.19;10446131;28;20237;-76
2024/04/01 07:52:57;;;;;;;0.00;0.00;;;;;;;29.12;29.16;94786.13;10425680;28;20032;-74
2024/04/01 07:57:58;;;;;;;0.00;0.00;;;;;;;29.90;28.25;94789.41;10415497;28;20294;-81
2024/04/01 08:03:01;;;;;;;0.00;0.00;;;;;;;30.79;27.32;94771.75;10447868;28;20940;-81
2024/04/01 08:08:03;;;;;;;0.00;0.00;;;;;;;31.09;26.69;94773.25;10445180;28;20167;-77
2024/04/01 08:13:05;;;;;;;0.00;0.00;;;;;;;31.24;26.54;94765.59;10444186;28;20102;-76
2024/04/01 08:18:05;;;;;;;0.00;0.00;;;;;;;31.19;26.52;94758.50;10444333;28;20060;-82
2024/04/01 08:23:05;;;;;;;0.00;0.00;;;;;;;32.23;24.88;94753.28;10408908;28;20473;-76
2024/04/01 08:28:06;;;;;;;0.00;0.00;;;;;;;32.88;25.01;94741.44;10447252;28;20029;-77
2024/04/01 08:33:06;;;;;;;0.00;0.00;;;;;;;33.61;23.48;94747.53;10421684;28;20037;-79
2024/04/01 08:38:07;;;;;;;0.00;0.00;;;;;;;34.00;22.86;94739.75;10427235;28;20295;-75
2024/04/01 08:43:13;;;;;;;0.00;0.00;;;;;;;34.29;23.60;94750.41;10428771;28;20226;-78
2024/04/01 08:48:16;;;;;;;;;;;;;;;34.65;22.19;94732.94;10429060;28;20474;-76
2024/04/01 08:53:35;;;;;;;0.00;0.00;;;;;;;34.68;22.37;94726.50;10444375;28;19916;-77
2024/04/01 08:58:36;;;;;;;0.00;0.00;;;;;;;33.30;23.83;94722.56;10429245;28;20029;-73
2024/04/01 09:03:39;;;;;;;0.00;0.00;;;;;;;31.55;24.31;94723.31;10424728;28;20278;-75
2024/04/01 09:08:40;;;;;;;0.00;0.00;;;;;;;30.17;25.30;94703.84;10427212;28;20036;-76
2024/04/01 09:13:40;;;;;;;0.00;0.00;;;;;;;31.43;23.76;94689.28;10422123;28;20083;-78
2024/04/01 09:18:41;;;;;;;0.00;0.00;;;;;;;33.11;22.99;94670.31;10422470;28;20025;-76
2024/04/01 09:23:43;;;;;;;0.00;0.00;;;;;;;33.41;24.54;94661.09;10422198;28;20287;-77
2024/04/01 09:28:45;;;;;;;0.00;0.00;;;;;;;31.62;24.92;94678.81;10422110;28;20021;-81
2024/04/01 09:33:45;;;;;;;0.00;0.00;;;;;;;30.59;26.27;94662.47;10406543;28;20044;-79
2024/04/01 09:38:46;;;;;;;0.00;0.00;;;;;;;30.51;26.06;94661.75;10422022;28;20023;-77
2024/04/01 09:43:55;;;;;;;0.00;0.00;;;;;;;30.92;25.96;94651.97;10402324;28;20327;-82
2024/04/01 09:48:59;;;;;;;0.00;0.00;;;;;;;31.46;24.84;94646.03;10416086;28;20178;-85
2024/04/01 09:54:02;;;;;;;0.00;0.00;;;;;;;32.63;23.70;94639.56;10423443;28;20043;-77
2024/04/01 09:59:24;;;;;;;0.00;0.00;;;;;;;33.18;23.87;94637.56;10421543;28;20043;-78
2024/04/01 10:04:49;;;;;;;0.00;0.00;;;;;;;34.87;21.07;94633.59;10404777;28;20263;-81
2024/04/01 10:09:59;;;;;;;0.00;0.00;;;;;;;35.47;20.60;94621.38;10420876;28;20124;-76
2024/04/01 10:15:18;;;;;;;0.00;0.00;;;;;;;36.50;19.95;94618.22;10448729;28;20107;-85
2024/04/01 10:20:18;;;;;;;0.00;0.00;;;;;;;37.60;18.78;94601.91;10447762;28;20040;-77
2024/04/01 10:25:52;;;;;;;0.00;0.00;;;;;;;38.19;19.34;94590.22;10434539;28;20431;-78
2024/04/01 10:31:17;;;;;;;0.00;0.00;;;;;;;37.67;18.43;94591.69;10428506;28;20056;-78
2024/04/01 10:36:44;;;;;;;0.00;0.00;;;;;;;38.37;17.45;94598.00;10431002;28;20052;-82
2024/04/01 10:42:06;;;;;;;0.00;0.00;;;;;;;37.79;18.99;94580.44;10431189;28;20037;-80
2024/04/01 10:47:28;;;;;;;0.00;0.00;;;;;;;37.83;17.60;94559.91;10393505;28;20063;-74
2024/04/01 10:53:02;;;;;;;0.00;0.00;;;;;;;37.66;17.37;94560.03;10417332;28;20478;-81
2024/04/01 10:59:03;;;;;;;0.00;0.00;;;;;;;36.88;18.78;94556.66;10440828;28;20031;-80
2024/04/01 11:04:51;;;;;;;0.00;0.00;;;;;;;36.73;16.98;94544.28;10336265;28;20041;-76
2024/04/01 11:10:11;;;;;;;0.00;0.00;;;;;;;35.09;16.98;94549.28;10418340;28;20458;-81
2024/04/01 11:15:14;;;;;;;1.77;0.03;;;;;;;35.52;16.08;94541.81;10445865;28;20057;-76
2024/04/01 11:20:40;;;;;;;0.00;0.00;;;;;;;33.75;16.14;94537.44;10430469;28;20037;-82
2024/04/01 11:25:43;;;;;;;0.00;0.00;;;;;;;33.60;18.81;94528.59;10427679;28;20040;-78
2024/04/01 11:30:44;;;;;;;0.00;0.00;;;;;;;32.42;16.76;94536.94;10426635;28;20107;-76
2024/04/01 11:35:51;;;;;;;0.00;0.00;;;;;;;32.47;17.72;94519.75;10444532;28;20025;-76
2024/04/01 11:40:53;;;;;;;0.00;0.00;;;;;;;32.27;17.88;94512.09;10429393;28;20058;-77
2024/04/01 11:45:56;;;;;;;0.00;0.00;;;;;;;32.09;17.63;94503.22;10425849;28;20657;-77
2024/04/01 11:50:58;;;;;;;0.00;0.00;;;;;;;31.91;18.05;94498.66;10425707;28;20025;-76
2024/04/01 11:55:59;;;;;;;1.25;0.00;;;;;;;30.79;16.69;94499.06;10429777;28;20029;-81
2024/04/01 12:01:01;;;;;;;0.00;0.00;;;;;;;30.15;18.47;94496.34;10418123;28;20381;-76
2024/04/01 12:06:07;;;;;;;0.00;0.00;;;;;;;30.26;21.40;94495.50;10419599;28;20025;-82
2024/04/01 12:11:08;;;;;;;4.10;0.10;;;;;;;29.74;17.93;94488.63;10385194;28;20033;-77
2024/04/01 12:16:11;;;;;;;0.00;0.00;;;;;;;29.64;18.54;94473.66;10412244;28;20295;-74
2024/04/01 12:21:18;;;;;;;0.00;0.00;;;;;;;29.73;20.29;94458.59;10409981;28;20141;-83
2024/04/01 12:26:48;;;;;;;0.00;0.00;;;;;;;30.08;18.36;94440.19;10425168;28;19920;-77
2024/04/01 12:31:52;;;;;;;0.00;0.00;;;;;;;30.03;18.56;94444.19;10442267;28;20052;-83
2024/04/01 12:36:53;;;;;;;0.00;0.00;;;;;;;29.94;18.43;94438.28;10426259;28;20056;-82
2024/04/01 12:41:53;;;;;;;0.00;0.00;;;;;;;29.56;19.47;94432.56;10426169;28;20551;-73
2024/04/01 12:46:56;;;;;;;0.00;0.00;;;;;;;29.52;18.24;94420.72;10424294;28;20021;-80
2024/04/01 12:51:58;;;;;;;0.00;0.00;;;;;;;29.48;19.11;94406.88;10407706;28;20051;-81
2024/04/01 12:57:11;;;;;;;0.00;0.00;;;;;;;29.38;17.87;94388.34;10422790;28;20031;-76
2024/04/01 13:02:37;;;;;;;0.00;0.00;;;;;;;29.46;19.08;94387.91;10424394;28;20033;-75
2024/04/01 13:07:57;;;;;;;0.00;0.00;;;;;;;29.07;20.25;94371.47;10422749;28;20261;-76
2024/04/01 13:13:25;;;;;;;0.00;0.00;;;;;;;29.12;20.49;94360.75;10427582;28;20148;-82
2024/04/01 13:18:47;;;;;;;0.00;0.00;;;;;;;29.35;19.56;94359.50;10441601;28;20367;-80
2024/04/01 13:24:20;;;;;;;0.00;0.00;;;;;;;29.40;19.17;94361.84;10426619;28;20511;-80
2024/04/01 13:29:47;;;;;;;0.00;0.00;;;;;;;29.66;19.15;94356.94;10397835;28;20051;-77
2024/04/01 13:35:12;;;;;;;0.00;0.00;;;;;;;29.58;18.69;94345.09;10429163;28;20079;-78
2024/04/01 13:40:40;;;;;;;0.00;0.00;;;;;;;29.60;20.27;94344.72;10434783;28;20465;-76
2024/04/01 13:45:58;;;;;;;0.00;0.00;;;;;;;29.70;21.29;94338.31;10456468;28;20029;-79
2024/04/01 13:51:26;;;;;;;0.00;0.00;;;;;;;29.57;18.27;94331.66;10408249;28;20116;-75
2024/04/01 13:56:44;;;;;;;0.00;0.00;;;;;;;29.06;18.57;94340.22;10449886;28;20056;-76
2024/04/01 14:02:09;;;;;;;0.00;0.00;;;;;;;28.97;19.01;94315.00;10427344;28;20068;-78
2024/04/01 14:07:37;;;;;;;0.00;0.00;;;;;;;28.87;19.99;94316.63;10427058;28;20168;-77
2024/04/01 14:12:59;;;;;;;0.00;0.00;;;;;;;28.77;18.56;94312.69;10421914;28;20029;-77
2024/04/01 14:18:24;;;;;;;1.17;0.00;;;;;;;28.65;18.90;94302.06;10420937;28;20419;-81
2024/04/01 14:23:25;;;;;;;0.00;0.00;;;;;;;28.18;19.23;94304.16;10425825;28;20052;-79
2024/04/01 14:28:26;;;;;;;0.00;0.00;;;;;;;28.27;19.48;94297.03;10404929;28;20037;-76
2024/04/01 14:33:28;;;;;;;0.00;0.00;;;;;;;28.33;19.75;94296.59;10437783;28;20037;-80
2024/04/01 14:38:30;;;;;;;1.65;0.10;;;;;;;28.34;19.16;94287.94;10440604;28;20025;-80
2024/04/01 14:43:32;;;;;;;3.88;0.10;;;;;;;28.41;19.12;94278.81;10424552;28;20452;-77
2024/04/01 14:48:32;;;;;;;0.00;0.00;;;;;;;28.40;19.45;94271.72;10421323;28;20124;-77
2024/04/01 14:53:33;;;;;;;0.00;0.00;;;;;;;28.51;19.22;94271.66;10420340;28;20033;-76
2024/04/01 14:58:34;;;;;;;0.00;0.00;;;;;;;28.61;19.00;94262.56;10441533;28;20032;-73
2024/04/01 15:03:37;;;;;;;0.00;0.00;;;;;;;28.52;19.30;94245.59;10445991;28;20029;-79
2024/04/01 15:08:39;;;;;;;2.00;0.00;;;;;;;28.38;18.83;94255.50;10429578;28;20025;-79
2024/04/01 15:13:41;;;;;;;0.00;0.00;;;;;;;28.31;19.44;94263.84;10423767;28;20029;-77
2024/04/01 15:18:43;;;;;;;0.00;0.00;;;;;;;28.19;19.57;94242.16;10425222;28;20048;-75
2024/04/01 15:23:46;;;;;;;0.00;0.00;;;;;;;28.02;19.28;94244.59;10446764;28;20045;-76
2024/04/01 15:28:48;;;;;;;0.00;0.00;;;;;;;28.03;19.60;94250.88;10445747;28;20039;-77
2024/04/01 15:33:49;;;;;;;0.35;0.00;;;;;;;27.80;19.46;94244.56;10424518;28;20222;-75
2024/04/01 15:38:50;;;;;;;0.00;0.00;;;;;;;27.77;19.82;94255.63;10426537;28;20107;-75
2024/04/01 15:43:56;;;;;;;0.00;0.00;;;;;;;27.57;19.96;94256.03;10449784;28;20163;-83
2024/04/01 15:49:02;;;;;;;1.75;0.13;;;;;;;27.52;20.42;94255.63;10430744;28;20446;-75
2024/04/01 15:54:02;;;;;;;0.00;0.00;;;;;;;27.30;19.85;94266.63;10387963;28;20045;-77
2024/04/01 15:59:04;;;;;;;0.00;0.00;;;;;;;27.20;20.25;94259.91;10423649;28;20024;-82
2024/04/01 16:04:07;;;;;;;0.00;0.00;;;;;;;26.93;20.86;94264.97;10410668;28;20032;-77
2024/04/01 16:09:09;;;;;;;7.03;0.20;;;;;;;26.71;21.04;94264.13;10426978;28;20063;-80
2024/04/01 16:14:16;;;;;;;0.00;0.00;;;;;;;26.57;21.34;94259.34;10430117;28;20040;-73
2024/04/01 16:19:22;;;;;;;0.00;0.00;;;;;;;26.38;21.57;94272.22;10431905;28;20048;-81
2024/04/01 16:24:27;;;;;;;0.00;0.00;;;;;;;26.29;21.27;94274.56;10424300;28;20067;-73
2024/04/01 16:29:31;;;;;;;0.55;0.00;;;;;;;26.09;21.49;94266.59;10450374;28;20039;-76
2024/04/01 16:34:33;;;;;;;1.13;0.00;;;;;;;25.99;21.51;94267.25;10424734;28;20028;-79
2024/04/01 16:39:34;;;;;;;1.30;0.00;;;;;;;25.86;21.49;94269.53;10425423;28;20021;-74
2024/04/01 16:44:35;;;;;;;0.00;0.00;;;;;;;25.82;21.53;94274.22;10455406;28;20036;-74
2024/04/01 16:49:39;;;;;;;0.00;0.00;;;;;;;25.70;21.71;94275.34;10452616;28;20043;-76
2024/04/01 16:54:39;;;;;;;0.30;0.00;;;;;;;25.53;22.18;94285.00;10441500;28;20124;-77
2024/04/01 16:59:41;;;;;;;3.10;0.00;;;;;;;25.29;22.31;94283.59;10433928;28;20021;-73
2024/04/01 17:04:43;;;;;;;9.10;0.10;;;;;;;25.35;22.61;94292.31;10449437;28;20474;-76
2024/04/01 17:09:43;;;;;;;0.00;0.00;;;;;;;25.27;22.62;94283.19;10424706;28;20036;-81
2024/04/01 17:14:44;;;;;;;0.00;0.00;;;;;;;25.15;23.03;94288.97;10425448;28;20044;-78
2024/04/01 17:19:47;;;;;;;0.00;0.00;;;;;;;25.00;23.45;94288.03;10402660;28;20057;-77
2024/04/01 17:24:47;;;;;;;2.30;0.05;;;;;;;24.85;23.66;94301.63;10404112;28;20050;-78
2024/04/01 17:29:48;;;;;;;0.00;0.00;;;;;;;24.63;24.57;94297.84;10390040;28;20037;-82
2024/04/01 17:34:51;;;;;;;0.00;0.00;;;;;;;24.44;24.73;94293.25;10414839;28;20032;-80
2024/04/01 17:39:54;;;;;;;0.00;0.00;;;;;;;24.40;25.01;94300.66;10385443;28;20539;-78
2024/04/01 17:44:59;;;;;;;0.00;0.00;;;;;;;24.38;24.62;94297.50;10421324;28;20014;-78
2024/04/01 17:49:59;;;;;;;0.00;0.00;;;;;;;24.42;24.70;94305.75;10405091;28;20389;-76
2024/04/01 17:55:00;;;;;;;0.00;0.00;;;;;;;24.32;25.74;94320.94;10392970;28;20042;-78
2024/04/01 18:00:03;;;;;;;0.00;0.00;;;;;;;24.22;25.83;94316.88;10398537;28;20040;-76
2024/04/01 18:05:06;;;;;;;0.00;0.00;;;;;;;24.11;25.91;94318.69;10391430;28;20059;-77
2024/04/01 18:10:07;;;;;;;0.00;0.00;;;;;;;23.98;26.81;94327.13;10407852;28;20029;-78
2024/04/01 18:15:08;;;;;;;0.00;0.00;;;;;;;23.70;27.13;94313.72;10375263;28;20041;-76
2024/04/01 18:20:11;;;;;;;0.00;0.00;;;;;;;23.58;27.06;94317.44;10418546;28;20423;-76
2024/04/01 18:25:12;;;;;;;0.77;0.00;;;;;;;23.41;27.42;94298.75;10395432;28;20120;-76
2024/04/01 18:30:16;;;;;;;0.00;0.00;;;;;;;23.36;27.44;94314.34;10376557;28;20116;-77
2024/04/01 18:35:16;;;;;;;0.00;0.00;;;;;;;23.27;28.26;94299.31;10411830;28;20492;-77
2024/04/01 18:40:18;;;;;;;0.00;0.00;;;;;;;22.92;28.45;94301.00;10397694;28;20034;-75
2024/04/01 18:45:20;;;;;;;0.20;0.00;;;;;;;22.70;28.85;94300.59;10401797;28;20017;-81
2024/04/01 18:50:26;;;;;;;0.00;0.00;;;;;;;22.69;29.42;94287.28;10395765;28;20023;-75
2024/04/01 18:55:27;;;;;;;0.00;0.00;;;;;;;22.51;30.61;94284.19;10403340;28;20523;-82
2024/04/01 19:00:28;;;;;;;0.00;0.00;;;;;;;22.41;28.70;94282.81;10400497;28;20027;-79
2024/04/01 19:05:29;;;;;;;0.00;0.00;;;;;;;22.28;28.45;94292.28;10415618;28;20013;-78
2024/04/01 19:10:29;;;;;;;0.00;0.00;;;;;;;22.32;27.68;94269.28;10386305;28;20124;-78
2024/04/01 19:15:30;;;;;;;0.00;0.00;;;;;;;22.48;27.06;94265.72;10398070;28;20403;-76
2024/04/01 19:20:32;;;;;;;0.00;0.00;;;;;;;22.61;26.49;94258.16;10404345;28;20362;-78
2024/04/01 19:25:32;;;;;;;0.00;0.00;;;;;;;22.63;26.26;94253.09;10381217;28;20041;-76
2024/04/01 19:30:33;;;;;;;0.00;0.00;;;;;;;22.67;26.33;94251.22;10400803;28;20017;-77
2024/04/01 19:35:34;;;;;;;0.00;0.00;;;;;;;22.76;25.74;94237.28;10399899;28;20713;-76
2024/04/01 19:40:34;;;;;;;0.00;0.00;;;;;;;22.74;26.24;94234.13;10399223;28;20406;-79
2024/04/01 19:45:35;;;;;;;1.20;0.00;;;;;;;22.68;26.35;94230.91;10415249;28;20017;-80
2024/04/01 19:50:35;;;;;;;0.00;0.00;;;;;;;22.74;25.15;94229.44;10418122;28;20021;-76
2024/04/01 19:55:36;;;;;;;0.00;0.00;;;;;;;22.84;24.92;94247.22;10399005;28;20033;-77
2024/04/01 20:00:37;;;;;;;0.00;0.00;;;;;;;23.04;23.89;94234.28;10416349;28;20495;-74
2024/04/01 20:05:37;;;;;;;1.58;0.00;;;;;;;23.17;23.78;94224.72;10402540;28;20029;-76
2024/04/01 20:10:38;;;;;;;0.00;0.00;;;;;;;23.36;23.28;94226.59;10384670;28;20068;-81
2024/04/01 20:15:38;;;;;;;0.00;0.00;;;;;;;23.29;24.68;94225.69;10390556;28;20087;-74
2024/04/01 20:20:40;;;;;;;15.20;0.47;;;;;;;23.33;23.32;94221.06;10391006;28;20025;-77
2024/04/01 20:25:43;;;;;;;0.00;0.00;;;;;;;23.38;22.85;94223.50;10402584;28;20068;-76
2024/04/01 20:30:44;;;;;;;0.00;0.00;;;;;;;23.64;21.91;94227.41;10394932;28;20017;-77
2024/04/01 20:35:45;;;;;;;0.00;0.00;;;;;;;23.74;21.99;94204.84;10395062;28;20438;-76
2024/04/01 20:40:49;;;;;;;0.00;0.00;;;;;;;23.69;21.99;94186.75;10390915;28;20033;-77
2024/04/01 20:45:51;;;;;;;0.00;0.00;;;;;;;23.68;22.58;94189.84;10397166;28;20270;-75
2024/04/01 20:50:54;;;;;;;0.00;0.00;;;;;;;23.59;22.68;94170.91;10419205;28;20024;-82
2024/04/01 20:55:54;;;;;;;0.00;0.00;;;;;;;23.52;22.38;94151.63;10390201;28;20041;-74
2024/04/01 21:00:54;;;;;;;0.00;0.00;;;;;;;23.55;22.35;94156.34;10406268;28;20163;-77
2024/04/01 21:05:55;;;;;;;0.00;0.00;;;;;;;23.51;22.24;94139.06;10394613;28;20296;-78
2024/04/01 21:10:55;;;;;;;0.00;0.00;;;;;;;23.56;22.21;94122.28;10363966;28;20326;-74
2024/04/01 21:16:00;;;;;;;0.00;0.00;;;;;;;23.60;22.21;94145.06;10400741;28;20021;-79
2024/04/01 21:21:00;;;;;;;0.00;0.00;;;;;;;23.62;22.36;94139.22;10397901;28;20467;-77
2024/04/01 21:26:06;;;;;;;0.00;0.00;;;;;;;23.59;22.62;94123.50;10418499;28;20103;-74
2024/04/01 21:31:06;;;;;;;1.45;0.05;;;;;;;23.52;22.65;94102.25;10395533;28;20040;-75
2024/04/01 21:36:07;;;;;;;0.00;0.00;;;;;;;23.54;22.31;94116.38;10389724;28;20843;-76
2024/04/01 21:41:07;;;;;;;5.85;0.05;;;;;;;23.66;22.02;94120.84;10393752;28;20033;-75
2024/04/01 21:46:07;;;;;;;0.10;0.00;;;;;;;23.70;22.23;94113.44;10398144;28;20498;-76
2024/04/01 21:51:08;;;;;;;0.00;0.00;;;;;;;23.67;22.67;94109.50;10401757;28;20017;-83
2024/04/01 21:56:09;;;;;;;0.00;0.00;;;;;;;23.45;22.32;94124.09;10417519;28;20017;-81
2024/04/01 22:01:09;;;;;;;0.00;0.00;;;;;;;23.32;22.54;94121.56;10397852;28;20037;-75
2024/04/01 22:06:11;;;;;;;0.00;0.00;;;;;;;23.24;22.82;94130.84;10411362;28;20574;-77
2024/04/01 22:11:11;;;;;;;0.00;0.00;;;;;;;23.20;22.78;94132.75;10411589;28;20094;-75
2024/04/01 22:16:12;;;;;;;0.00;0.00;;;;;;;23.10;22.91;94136.88;10407481;28;20116;-80
2024/04/01 22:21:12;;;;;;;0.00;0.00;;;;;;;23.06;23.09;94135.25;10409271;28;20286;-82
2024/04/01 22:26:12;;;;;;;0.00;0.00;;;;;;;22.89;23.10;94137.31;10407055;28;20450;-77
2024/04/01 22:31:13;;;;;;;0.00;0.00;;;;;;;22.79;23.47;94135.22;10411473;28;20305;-76
2024/04/01 22:36:13;;;;;;;0.00;0.00;;;;;;;22.70;23.49;94116.25;10423338;28;20287;-74
2024/04/01 22:41:14;;;;;;;0.98;0.00;;;;;;;22.60;24.05;94136.84;10402451;28;20268;-83
2024/04/01 22:46:14;;;;;;;0.00;0.00;;;;;;;22.33;24.85;94133.22;10425713;28;20108;-77
2024/04/01 22:51:14;;;;;;;0.00;0.00;;;;;;;22.02;25.58;94113.09;10408803;28;20074;-76
2024/04/01 22:56:19;;;;;;;0.00;0.00;;;;;;;21.90;25.49;94111.28;10407645;28;20626;-80
2024/04/01 23:01:19;;;;;;;0.00;0.00;;;;;;;21.71;25.87;94097.59;10411694;28;20116;-76
2024/04/01 23:06:20;;;;;;;0.00;0.00;;;;;;;21.60;26.43;94091.91;10418285;28;20027;-77
2024/04/01 23:11:20;;;;;;;0.00;0.00;;;;;;;21.43;26.96;94093.88;10394699;28;20028;-75
2024/04/01 23:16:21;;;;;;;0.00;0.00;;;;;;;21.22;27.36;94075.09;10412410;28;20173;-76
2024/04/01 23:21:21;;;;;;;0.47;0.00;;;;;;;21.03;27.48;94092.25;10410064;28;20056;-80
2024/04/01 23:26:21;;;;;;;0.00;0.00;;;;;;;20.86;27.67;94066.13;10402007;28;20033;-76
2024/04/01 23:31:22;;;;;;;2.00;0.00;;;;;;;20.86;27.82;94070.75;10402269;28;20455;-76
2024/04/01 23:36:22;;;;;;;0.00;0.00;;;;;;;20.74;28.03;94055.28;10380768;28;20291;-76
2024/04/01 23:41:23;;;;;;;0.00;0.00;;;;;;;20.65;28.71;94061.69;10402894;28;20491;-78
2024/04/01 23:46:24;;;;;;;0.00;0.00;;;;;;;20.52;29.11;94043.81;10402758;28;20016;-77